sensor_id;sensor_type;location;lat;lon;timestamp;pressure;altitude;pressure_sealevel;temperature;humidity
74327;BME280;62745;51.060;13.786;2023-02-26T00:01:31;99742.94;;;-0.68;100.00
74327;BME280;62745;51.060;13.786;2023-02-26T00:03:59;99754.22;;;-0.77;100.00
74327;BME280;62745;51.060;13.786;2023-02-26T00:06:25;99757.13;;;-0.80;100.00
74327;BME280;62745;51.060;13.786;2023-02-26T00:08:50;99748.38;;;-0.91;100.00
74327;BME280;62745;51.060;13.786;2023-02-26T00:11:16;99754.03;;;-0.95;100.00
74327;BME280;62745;51.060;13.786;2023-02-26T00:13:43;99763.28;;;-0.91;100.00
74327;BME280;62745;51.060;13.786;2023-02-26T00:18:55;99765.22;;;-0.93;100.00
74327;BME280;62745;51.060;13.786;2023-02-26T00:21:22;99770.81;;;-0.77;100.00
74327;BME280;62745;51.060;13.786;2023-02-26T00:23:48;99766.53;;;-0.68;100.00
74327;BME280;62745;51.060;13.786;2023-02-26T00:26:13;99773.56;;;-0.78;100.00
74327;BME280;62745;51.060;13.786;2023-02-26T00:28:39;99774.47;;;-0.89;100.00
74327;BME280;62745;51.060;13.786;2023-02-26T00:31:05;99779.97;;;-0.62;100.00
74327;BME280;62745;51.060;13.786;2023-02-26T00:33:31;99776.66;;;-0.64;100.00
74327;BME280;62745;51.060;13.786;2023-02-26T00:36:02;99781.28;;;-0.77;100.00
74327;BME280;62745;51.060;13.786;2023-02-26T00:38:37;99789.28;;;-0.78;100.00
74327;BME280;62745;51.060;13.786;2023-02-26T00:41:04;99786.59;;;-0.67;100.00
74327;BME280;62745;51.060;13.786;2023-02-26T00:43:29;99787.66;;;-0.70;100.00
74327;BME280;62745;51.060;13.786;2023-02-26T00:48:50;99783.06;;;-1.08;100.00
74327;BME280;62745;51.060;13.786;2023-02-26T00:51:40;99790.91;;;-1.08;100.00
74327;BME280;62745;51.060;13.786;2023-02-26T00:54:24;99797.38;;;-1.12;100.00
74327;BME280;62745;51.060;13.786;2023-02-26T00:56:51;99792.56;;;-1.07;100.00
74327;BME280;62745;51.060;13.786;2023-02-26T00:59:17;99793.94;;;-1.12;100.00
74327;BME280;62745;51.060;13.786;2023-02-26T01:01:43;99789.25;;;-1.09;100.00
74327;BME280;62745;51.060;13.786;2023-02-26T01:04:09;99790.53;;;-1.03;100.00
74327;BME280;62745;51.060;13.786;2023-02-26T01:06:39;99795.78;;;-1.03;100.00
74327;BME280;62745;51.060;13.786;2023-02-26T01:11:44;99801.00;;;-0.82;100.00
74327;BME280;62745;51.060;13.786;2023-02-26T01:14:10;99803.41;;;-1.00;100.00
74327;BME280;62745;51.060;13.786;2023-02-26T01:16:46;99800.75;;;-0.79;100.00
74327;BME280;62745;51.060;13.786;2023-02-26T01:19:24;99794.81;;;-1.02;100.00
74327;BME280;62745;51.060;13.786;2023-02-26T01:21:59;99801.16;;;-0.84;100.00
74327;BME280;62745;51.060;13.786;2023-02-26T01:24:28;99798.31;;;-0.92;100.00
74327;BME280;62745;51.060;13.786;2023-02-26T01:26:54;99803.69;;;-0.94;100.00
74327;BME280;62745;51.060;13.786;2023-02-26T01:29:20;99805.72;;;-0.76;100.00
74327;BME280;62745;51.060;13.786;2023-02-26T01:32:29;99804.13;;;-0.58;100.00
74327;BME280;62745;51.060;13.786;2023-02-26T01:34:40;99806.47;;;-0.65;100.00
74327;BME280;62745;51.060;13.786;2023-02-26T01:37:42;99816.81;;;-0.63;99.55
74327;BME280;62745;51.060;13.786;2023-02-26T01:40:26;99821.00;;;-0.51;99.55
74327;BME280;62745;51.060;13.786;2023-02-26T01:42:57;99818.66;;;-0.54;99.94
74327;BME280;62745;51.060;13.786;2023-02-26T01:45:34;99820.75;;;-0.48;100.00
74327;BME280;62745;51.060;13.786;2023-02-26T01:48:11;99816.84;;;-0.53;100.00
74327;BME280;62745;51.060;13.786;2023-02-26T01:50:43;99826.00;;;-0.48;99.63
74327;BME280;62745;51.060;13.786;2023-02-26T01:55:43;99821.66;;;-0.28;97.78
74327;BME280;62745;51.060;13.786;2023-02-26T01:58:10;99830.16;;;-0.45;98.42
74327;BME280;62745;51.060;13.786;2023-02-26T02:00:35;99829.81;;;-0.21;98.75
74327;BME280;62745;51.060;13.786;2023-02-26T02:03:01;99839.28;;;-0.40;98.30
74327;BME280;62745;51.060;13.786;2023-02-26T02:05:34;99842.78;;;-0.29;98.20
74327;BME280;62745;51.060;13.786;2023-02-26T02:08:02;99847.16;;;-0.40;98.68
74327;BME280;62745;51.060;13.786;2023-02-26T02:10:28;99841.56;;;-0.56;98.66
74327;BME280;62745;51.060;13.786;2023-02-26T02:13:28;99848.47;;;-0.24;98.98
74327;BME280;62745;51.060;13.786;2023-02-26T02:16:15;99856.38;;;-0.15;97.38
74327;BME280;62745;51.060;13.786;2023-02-26T02:18:52;99864.97;;;-0.03;97.50
74327;BME280;62745;51.060;13.786;2023-02-26T02:21:41;99860.38;;;-0.11;96.82
74327;BME280;62745;51.060;13.786;2023-02-26T02:24:16;99868.53;;;-0.14;96.60
74327;BME280;62745;51.060;13.786;2023-02-26T02:26:58;99866.47;;;-0.10;97.18
74327;BME280;62745;51.060;13.786;2023-02-26T02:32:18;99876.44;;;-0.04;96.87
74327;BME280;62745;51.060;13.786;2023-02-26T02:34:53;99878.41;;;0.04;96.24
74327;BME280;62745;51.060;13.786;2023-02-26T02:37:44;99882.25;;;-0.01;96.38
74327;BME280;62745;51.060;13.786;2023-02-26T02:40:32;99892.69;;;-0.20;97.09
74327;BME280;62745;51.060;13.786;2023-02-26T02:43:07;99896.75;;;-0.06;95.66
74327;BME280;62745;51.060;13.786;2023-02-26T02:48:17;99905.59;;;-0.07;96.97
74327;BME280;62745;51.060;13.786;2023-02-26T02:50:49;99903.56;;;-0.24;97.46
74327;BME280;62745;51.060;13.786;2023-02-26T02:53:20;99908.97;;;-0.26;97.70
74327;BME280;62745;51.060;13.786;2023-02-26T02:55:58;99914.25;;;-0.16;97.50
74327;BME280;62745;51.060;13.786;2023-02-26T02:58:34;99915.78;;;-0.14;98.07
74327;BME280;62745;51.060;13.786;2023-02-26T03:01:05;99914.34;;;-0.27;97.99
74327;BME280;62745;51.060;13.786;2023-02-26T03:03:41;99926.16;;;-0.12;97.87
74327;BME280;62745;51.060;13.786;2023-02-26T03:06:08;99924.06;;;0.22;97.12
74327;BME280;62745;51.060;13.786;2023-02-26T03:08:36;99936.72;;;0.07;95.64
74327;BME280;62745;51.060;13.786;2023-02-26T03:11:02;99941.56;;;0.12;96.22
74327;BME280;62745;51.060;13.786;2023-02-26T03:13:27;99943.22;;;0.13;96.16
74327;BME280;62745;51.060;13.786;2023-02-26T03:16:58;99949.19;;;0.15;96.45
74327;BME280;62745;51.060;13.786;2023-02-26T03:19:26;99944.00;;;-0.06;96.21
74327;BME280;62745;51.060;13.786;2023-02-26T03:22:05;99952.75;;;0.04;96.46
74327;BME280;62745;51.060;13.786;2023-02-26T03:24:56;99947.06;;;-0.01;96.60
74327;BME280;62745;51.060;13.786;2023-02-26T03:27:30;99949.28;;;-0.27;96.42
74327;BME280;62745;51.060;13.786;2023-02-26T03:30:14;99952.69;;;-0.15;95.57
74327;BME280;62745;51.060;13.786;2023-02-26T03:32:59;99965.63;;;0.17;96.34
74327;BME280;62745;51.060;13.786;2023-02-26T03:35:38;99968.81;;;0.11;94.51
74327;BME280;62745;51.060;13.786;2023-02-26T03:38:10;99974.38;;;0.17;95.61
74327;BME280;62745;51.060;13.786;2023-02-26T03:40:43;99972.41;;;0.10;94.51
74327;BME280;62745;51.060;13.786;2023-02-26T03:43:19;99980.47;;;0.18;94.61
74327;BME280;62745;51.060;13.786;2023-02-26T03:45:50;99983.19;;;0.16;95.14
74327;BME280;62745;51.060;13.786;2023-02-26T03:48:21;99989.38;;;0.06;95.05
74327;BME280;62745;51.060;13.786;2023-02-26T03:50:50;99990.56;;;-0.08;94.52
74327;BME280;62745;51.060;13.786;2023-02-26T03:53:21;99996.00;;;0.00;95.68
74327;BME280;62745;51.060;13.786;2023-02-26T03:56:02;99996.47;;;-0.16;94.68
74327;BME280;62745;51.060;13.786;2023-02-26T03:58:30;99998.13;;;-0.15;95.98
74327;BME280;62745;51.060;13.786;2023-02-26T04:01:03;100001.94;;;0.02;96.35
74327;BME280;62745;51.060;13.786;2023-02-26T04:03:39;100007.06;;;-0.17;94.70
74327;BME280;62745;51.060;13.786;2023-02-26T04:06:07;100012.31;;;-0.17;95.47
74327;BME280;62745;51.060;13.786;2023-02-26T04:08:32;100015.53;;;-0.14;95.69
74327;BME280;62745;51.060;13.786;2023-02-26T04:11:03;100015.28;;;-0.11;96.11
74327;BME280;62745;51.060;13.786;2023-02-26T04:13:30;100021.75;;;-0.15;96.31
74327;BME280;62745;51.060;13.786;2023-02-26T04:15:55;100026.34;;;-0.07;96.27
74327;BME280;62745;51.060;13.786;2023-02-26T04:18:20;100032.00;;;-0.12;96.39
74327;BME280;62745;51.060;13.786;2023-02-26T04:20:46;100029.53;;;-0.04;95.67
74327;BME280;62745;51.060;13.786;2023-02-26T04:23:11;100040.25;;;0.05;95.42
74327;BME280;62745;51.060;13.786;2023-02-26T04:25:36;100043.63;;;-0.05;94.71
74327;BME280;62745;51.060;13.786;2023-02-26T04:28:02;100047.03;;;-0.14;94.69
74327;BME280;62745;51.060;13.786;2023-02-26T04:30:27;100045.63;;;-0.18;95.01
74327;BME280;62745;51.060;13.786;2023-02-26T04:32:52;100053.25;;;-0.15;94.22
74327;BME280;62745;51.060;13.786;2023-02-26T04:35:18;100047.88;;;-0.13;94.50
74327;BME280;62745;51.060;13.786;2023-02-26T04:37:43;100051.44;;;0.07;93.81
74327;BME280;62745;51.060;13.786;2023-02-26T04:40:09;100056.91;;;-0.06;92.98
74327;BME280;62745;51.060;13.786;2023-02-26T04:42:34;100058.81;;;-0.08;92.87
74327;BME280;62745;51.060;13.786;2023-02-26T04:45:00;100068.88;;;-0.13;94.26
74327;BME280;62745;51.060;13.786;2023-02-26T04:47:25;100074.41;;;-0.16;94.95
74327;BME280;62745;51.060;13.786;2023-02-26T04:49:50;100062.66;;;-0.12;94.37
74327;BME280;62745;51.060;13.786;2023-02-26T04:52:16;100076.19;;;-0.17;93.89
74327;BME280;62745;51.060;13.786;2023-02-26T04:54:41;100080.25;;;-0.24;93.99
74327;BME280;62745;51.060;13.786;2023-02-26T04:57:06;100084.28;;;-0.20;94.20
74327;BME280;62745;51.060;13.786;2023-02-26T04:59:31;100083.84;;;-0.25;93.58
74327;BME280;62745;51.060;13.786;2023-02-26T05:01:57;100094.59;;;-0.28;93.29
74327;BME280;62745;51.060;13.786;2023-02-26T05:04:23;100086.03;;;-0.09;93.68
74327;BME280;62745;51.060;13.786;2023-02-26T05:06:48;100105.44;;;-0.01;93.90
74327;BME280;62745;51.060;13.786;2023-02-26T05:09:13;100107.22;;;-0.01;92.98
74327;BME280;62745;51.060;13.786;2023-02-26T05:11:38;100109.91;;;-0.12;93.83
74327;BME280;62745;51.060;13.786;2023-02-26T05:14:04;100108.19;;;-0.02;93.28
74327;BME280;62745;51.060;13.786;2023-02-26T05:16:29;100112.41;;;-0.11;92.62
74327;BME280;62745;51.060;13.786;2023-02-26T05:18:54;100119.84;;;0.05;92.04
74327;BME280;62745;51.060;13.786;2023-02-26T05:21:19;100115.50;;;-0.06;92.54
74327;BME280;62745;51.060;13.786;2023-02-26T05:23:46;100124.06;;;-0.04;92.71
74327;BME280;62745;51.060;13.786;2023-02-26T05:26:11;100114.59;;;0.05;92.99
74327;BME280;62745;51.060;13.786;2023-02-26T05:28:36;100122.13;;;-0.02;92.76
74327;BME280;62745;51.060;13.786;2023-02-26T05:31:02;100126.56;;;-0.23;92.23
74327;BME280;62745;51.060;13.786;2023-02-26T05:33:27;100135.91;;;0.12;92.93
74327;BME280;62745;51.060;13.786;2023-02-26T05:35:53;100139.69;;;-0.02;91.75
74327;BME280;62745;51.060;13.786;2023-02-26T05:38:18;100141.34;;;-0.01;92.31
74327;BME280;62745;51.060;13.786;2023-02-26T05:40:44;100144.72;;;0.01;92.35
74327;BME280;62745;51.060;13.786;2023-02-26T05:43:09;100156.03;;;0.02;92.01
74327;BME280;62745;51.060;13.786;2023-02-26T05:45:34;100151.84;;;-0.01;92.27
74327;BME280;62745;51.060;13.786;2023-02-26T05:48:00;100154.16;;;-0.08;91.64
74327;BME280;62745;51.060;13.786;2023-02-26T05:50:25;100146.47;;;-0.20;93.15
74327;BME280;62745;51.060;13.786;2023-02-26T05:52:51;100163.84;;;-0.08;92.75
74327;BME280;62745;51.060;13.786;2023-02-26T05:55:16;100166.16;;;-0.15;91.41
74327;BME280;62745;51.060;13.786;2023-02-26T05:57:42;100169.78;;;-0.06;92.96
74327;BME280;62745;51.060;13.786;2023-02-26T06:00:08;100179.03;;;0.09;92.68
74327;BME280;62745;51.060;13.786;2023-02-26T06:02:33;100179.84;;;-0.11;93.03
74327;BME280;62745;51.060;13.786;2023-02-26T06:04:59;100189.66;;;-0.24;92.61
74327;BME280;62745;51.060;13.786;2023-02-26T06:07:24;100191.75;;;-0.07;93.84
74327;BME280;62745;51.060;13.786;2023-02-26T06:09:49;100196.13;;;0.04;92.78
74327;BME280;62745;51.060;13.786;2023-02-26T06:12:14;100197.94;;;0.24;92.42
74327;BME280;62745;51.060;13.786;2023-02-26T06:14:40;100201.13;;;0.07;91.57
74327;BME280;62745;51.060;13.786;2023-02-26T06:17:05;100207.91;;;-0.12;92.73
74327;BME280;62745;51.060;13.786;2023-02-26T06:19:31;100207.81;;;-0.01;93.12
74327;BME280;62745;51.060;13.786;2023-02-26T06:21:56;100217.72;;;0.07;92.23
74327;BME280;62745;51.060;13.786;2023-02-26T06:24:22;100216.38;;;0.13;92.32
74327;BME280;62745;51.060;13.786;2023-02-26T06:26:47;100226.72;;;0.25;92.29
74327;BME280;62745;51.060;13.786;2023-02-26T06:29:14;100223.06;;;-0.15;93.34
74327;BME280;62745;51.060;13.786;2023-02-26T06:31:39;100225.16;;;0.02;92.68
74327;BME280;62745;51.060;13.786;2023-02-26T06:34:05;100237.81;;;-0.03;93.06
74327;BME280;62745;51.060;13.786;2023-02-26T06:36:30;100235.47;;;0.15;92.69
74327;BME280;62745;51.060;13.786;2023-02-26T06:38:55;100245.00;;;0.16;92.45
74327;BME280;62745;51.060;13.786;2023-02-26T06:41:21;100251.00;;;0.18;91.68
74327;BME280;62745;51.060;13.786;2023-02-26T06:43:46;100257.91;;;0.19;91.77
74327;BME280;62745;51.060;13.786;2023-02-26T06:46:11;100257.84;;;0.30;91.26
74327;BME280;62745;51.060;13.786;2023-02-26T06:48:37;100268.44;;;0.19;91.27
74327;BME280;62745;51.060;13.786;2023-02-26T06:51:02;100266.53;;;0.10;91.81
74327;BME280;62745;51.060;13.786;2023-02-26T06:53:27;100272.25;;;0.15;91.86
74327;BME280;62745;51.060;13.786;2023-02-26T06:55:53;100270.66;;;0.23;91.74
74327;BME280;62745;51.060;13.786;2023-02-26T06:58:19;100280.22;;;0.24;90.82
74327;BME280;62745;51.060;13.786;2023-02-26T07:00:45;100281.44;;;0.20;91.43
74327;BME280;62745;51.060;13.786;2023-02-26T07:03:13;100275.91;;;0.55;91.00
74327;BME280;62745;51.060;13.786;2023-02-26T07:05:38;100285.59;;;0.55;89.86
74327;BME280;62745;51.060;13.786;2023-02-26T07:08:04;100283.28;;;0.29;89.83
74327;BME280;62745;51.060;13.786;2023-02-26T07:10:31;100292.59;;;0.34;90.57
74327;BME280;62745;51.060;13.786;2023-02-26T07:12:56;100301.13;;;0.15;91.59
74327;BME280;62745;51.060;13.786;2023-02-26T07:15:21;100307.69;;;0.20;91.38
74327;BME280;62745;51.060;13.786;2023-02-26T07:17:47;100311.47;;;0.27;90.65
74327;BME280;62745;51.060;13.786;2023-02-26T07:20:12;100311.47;;;0.27;90.69
74327;BME280;62745;51.060;13.786;2023-02-26T07:22:38;100317.19;;;0.33;89.88
74327;BME280;62745;51.060;13.786;2023-02-26T07:25:04;100316.13;;;0.35;89.77
74327;BME280;62745;51.060;13.786;2023-02-26T07:27:31;100324.72;;;0.37;90.36
74327;BME280;62745;51.060;13.786;2023-02-26T07:29:57;100329.97;;;0.37;90.61
74327;BME280;62745;51.060;13.786;2023-02-26T07:32:23;100331.66;;;0.27;90.98
74327;BME280;62745;51.060;13.786;2023-02-26T07:34:48;100335.66;;;0.53;90.50
74327;BME280;62745;51.060;13.786;2023-02-26T07:37:13;100332.72;;;0.36;90.94
74327;BME280;62745;51.060;13.786;2023-02-26T07:39:39;100330.91;;;1.10;100.00
74327;BME280;62745;51.060;13.786;2023-02-26T07:42:04;100340.88;;;1.58;91.13
74327;BME280;62745;51.060;13.786;2023-02-26T07:44:30;100338.38;;;2.16;88.32
74327;BME280;62745;51.060;13.786;2023-02-26T07:46:55;100335.94;;;2.24;88.87
74327;BME280;62745;51.060;13.786;2023-02-26T07:49:20;100346.63;;;2.61;88.00
74327;BME280;62745;51.060;13.786;2023-02-26T07:51:46;100349.63;;;2.18;83.10
74327;BME280;62745;51.060;13.786;2023-02-26T07:54:12;100348.72;;;2.38;85.17
74327;BME280;62745;51.060;13.786;2023-02-26T07:56:39;100363.94;;;2.25;83.76
74327;BME280;62745;51.060;13.786;2023-02-26T07:59:05;100359.41;;;2.65;84.12
74327;BME280;62745;51.060;13.786;2023-02-26T08:01:31;100370.34;;;3.09;87.91
74327;BME280;62745;51.060;13.786;2023-02-26T08:03:56;100368.66;;;3.27;83.65
74327;BME280;62745;51.060;13.786;2023-02-26T08:06:22;100367.25;;;2.17;82.24
74327;BME280;62745;51.060;13.786;2023-02-26T08:08:47;100378.81;;;2.84;83.20
74327;BME280;62745;51.060;13.786;2023-02-26T08:11:13;100376.28;;;2.34;84.33
74327;BME280;62745;51.060;13.786;2023-02-26T08:13:38;100379.94;;;2.42;83.69
74327;BME280;62745;51.060;13.786;2023-02-26T08:16:03;100381.66;;;2.03;83.31
74327;BME280;62745;51.060;13.786;2023-02-26T08:18:29;100385.25;;;2.02;84.39
74327;BME280;62745;51.060;13.786;2023-02-26T08:20:54;100382.22;;;2.07;84.75
74327;BME280;62745;51.060;13.786;2023-02-26T08:23:19;100395.09;;;2.69;84.66
74327;BME280;62745;51.060;13.786;2023-02-26T08:25:45;100401.31;;;2.59;84.00
74327;BME280;62745;51.060;13.786;2023-02-26T08:28:11;100402.41;;;2.47;83.17
74327;BME280;62745;51.060;13.786;2023-02-26T08:30:36;100404.53;;;2.82;84.47
74327;BME280;62745;51.060;13.786;2023-02-26T08:33:01;100404.88;;;2.29;82.06
74327;BME280;62745;51.060;13.786;2023-02-26T08:35:27;100412.44;;;2.03;83.75
74327;BME280;62745;51.060;13.786;2023-02-26T08:37:52;100412.25;;;1.95;85.08
74327;BME280;62745;51.060;13.786;2023-02-26T08:40:18;100413.75;;;2.28;85.45
74327;BME280;62745;51.060;13.786;2023-02-26T08:42:43;100423.81;;;2.03;83.52
74327;BME280;62745;51.060;13.786;2023-02-26T08:45:09;100420.91;;;2.16;83.18
74327;BME280;62745;51.060;13.786;2023-02-26T08:47:34;100431.66;;;2.34;84.12
74327;BME280;62745;51.060;13.786;2023-02-26T08:49:59;100436.34;;;2.21;85.17
74327;BME280;62745;51.060;13.786;2023-02-26T08:52:25;100440.66;;;2.22;83.73
74327;BME280;62745;51.060;13.786;2023-02-26T08:54:51;100438.53;;;2.75;84.19
74327;BME280;62745;51.060;13.786;2023-02-26T08:57:16;100441.81;;;2.48;82.98
74327;BME280;62745;51.060;13.786;2023-02-26T08:59:41;100448.09;;;2.66;85.71
74327;BME280;62745;51.060;13.786;2023-02-26T09:02:09;100452.09;;;2.41;82.35
74327;BME280;62745;51.060;13.786;2023-02-26T09:04:35;100455.16;;;2.56;82.22
74327;BME280;62745;51.060;13.786;2023-02-26T09:07:00;100458.91;;;2.54;82.37
74327;BME280;62745;51.060;13.786;2023-02-26T09:09:25;100465.41;;;2.50;82.68
74327;BME280;62745;51.060;13.786;2023-02-26T09:11:50;100462.56;;;2.72;83.44
74327;BME280;62745;51.060;13.786;2023-02-26T09:14:16;100467.16;;;2.30;81.16
74327;BME280;62745;51.060;13.786;2023-02-26T09:16:41;100480.06;;;2.92;81.17
74327;BME280;62745;51.060;13.786;2023-02-26T09:19:06;100468.81;;;2.81;80.05
74327;BME280;62745;51.060;13.786;2023-02-26T09:21:32;100481.47;;;2.87;80.58
74327;BME280;62745;51.060;13.786;2023-02-26T09:23:57;100482.97;;;2.70;80.67
74327;BME280;62745;51.060;13.786;2023-02-26T09:26:22;100481.91;;;2.52;80.98
74327;BME280;62745;51.060;13.786;2023-02-26T09:28:48;100493.22;;;2.23;81.75
74327;BME280;62745;51.060;13.786;2023-02-26T09:31:13;100495.31;;;2.20;82.33
74327;BME280;62745;51.060;13.786;2023-02-26T09:33:39;100511.22;;;1.88;82.79
74327;BME280;62745;51.060;13.786;2023-02-26T09:36:05;100504.59;;;1.93;83.02
74327;BME280;62745;51.060;13.786;2023-02-26T09:38:30;100512.50;;;1.93;82.56
74327;BME280;62745;51.060;13.786;2023-02-26T09:40:58;100506.06;;;1.65;83.43
74327;BME280;62745;51.060;13.786;2023-02-26T09:46:53;100514.72;;;1.98;82.17
74327;BME280;62745;51.060;13.786;2023-02-26T09:51:57;100518.25;;;2.08;81.88
74327;BME280;62745;51.060;13.786;2023-02-26T09:54:28;100519.84;;;1.99;80.54
74327;BME280;62745;51.060;13.786;2023-02-26T09:56:57;100527.91;;;2.28;82.37
74327;BME280;62745;51.060;13.786;2023-02-26T09:59:24;100523.81;;;2.35;81.09
74327;BME280;62745;51.060;13.786;2023-02-26T10:01:57;100520.56;;;2.01;81.06
74327;BME280;62745;51.060;13.786;2023-02-26T10:05:42;100545.13;;;2.32;80.33
74327;BME280;62745;51.060;13.786;2023-02-26T10:08:01;100550.31;;;2.44;80.38
74327;BME280;62745;51.060;13.786;2023-02-26T10:13:18;100552.34;;;2.30;80.47
74327;BME280;62745;51.060;13.786;2023-02-26T10:15:49;100561.22;;;2.29;81.67
74327;BME280;62745;51.060;13.786;2023-02-26T10:18:22;100566.22;;;2.32;80.06
74327;BME280;62745;51.060;13.786;2023-02-26T10:20:55;100570.16;;;2.17;79.98
74327;BME280;62745;51.060;13.786;2023-02-26T10:23:38;100565.91;;;2.26;81.24
74327;BME280;62745;51.060;13.786;2023-02-26T10:26:24;100578.00;;;2.28;79.75
74327;BME280;62745;51.060;13.786;2023-02-26T10:31:48;100583.56;;;2.35;78.01
74327;BME280;62745;51.060;13.786;2023-02-26T10:34:35;100587.03;;;2.56;78.12
74327;BME280;62745;51.060;13.786;2023-02-26T10:37:17;100585.41;;;2.14;79.36
74327;BME280;62745;51.060;13.786;2023-02-26T10:39:52;100599.28;;;2.36;79.56
74327;BME280;62745;51.060;13.786;2023-02-26T10:42:32;100595.28;;;2.42;78.20
74327;BME280;62745;51.060;13.786;2023-02-26T10:48:32;100594.59;;;3.20;77.47
74327;BME280;62745;51.060;13.786;2023-02-26T10:51:11;100604.00;;;3.13;75.79
74327;BME280;62745;51.060;13.786;2023-02-26T10:53:36;100597.38;;;3.38;75.27
74327;BME280;62745;51.060;13.786;2023-02-26T10:56:07;100606.28;;;3.66;73.13
74327;BME280;62745;51.060;13.786;2023-02-26T10:58:34;100599.34;;;3.36;72.46
74327;BME280;62745;51.060;13.786;2023-02-26T11:01:00;100605.72;;;3.43;74.26
74327;BME280;62745;51.060;13.786;2023-02-26T11:03:33;100611.53;;;3.27;75.48
74327;BME280;62745;51.060;13.786;2023-02-26T11:06:01;100612.13;;;3.41;74.63
74327;BME280;62745;51.060;13.786;2023-02-26T11:08:34;100611.97;;;3.52;74.51
74327;BME280;62745;51.060;13.786;2023-02-26T11:11:02;100616.13;;;3.35;73.27
74327;BME280;62745;51.060;13.786;2023-02-26T11:13:30;100615.16;;;3.46;73.48
74327;BME280;62745;51.060;13.786;2023-02-26T11:16:05;100616.59;;;3.88;72.04
74327;BME280;62745;51.060;13.786;2023-02-26T11:21:05;100608.94;;;4.51;68.04
74327;BME280;62745;51.060;13.786;2023-02-26T11:23:32;100608.09;;;4.61;67.05
74327;BME280;62745;51.060;13.786;2023-02-26T11:26:06;100606.09;;;4.72;66.37
74327;BME280;62745;51.060;13.786;2023-02-26T11:28:46;100613.31;;;5.07;67.06
74327;BME280;62745;51.060;13.786;2023-02-26T11:31:16;100607.53;;;4.57;68.71
74327;BME280;62745;51.060;13.786;2023-02-26T11:33:48;100618.00;;;4.49;68.93
74327;BME280;62745;51.060;13.786;2023-02-26T11:36:18;100612.69;;;3.83;69.75
74327;BME280;62745;51.060;13.786;2023-02-26T11:38:45;100620.47;;;3.75;71.42
74327;BME280;62745;51.060;13.786;2023-02-26T11:41:12;100627.00;;;3.61;72.24
74327;BME280;62745;51.060;13.786;2023-02-26T11:43:47;100629.25;;;3.75;72.40
74327;BME280;62745;51.060;13.786;2023-02-26T11:46:13;100624.22;;;3.82;71.21
74327;BME280;62745;51.060;13.786;2023-02-26T11:48:47;100624.56;;;4.35;70.49
74327;BME280;62745;51.060;13.786;2023-02-26T11:51:22;100613.38;;;4.51;69.01
74327;BME280;62745;51.060;13.786;2023-02-26T11:53:52;100626.50;;;4.43;69.99
74327;BME280;62745;51.060;13.786;2023-02-26T11:56:34;100623.66;;;4.07;68.44
74327;BME280;62745;51.060;13.786;2023-02-26T11:59:06;100620.31;;;3.38;73.67
74327;BME280;62745;51.060;13.786;2023-02-26T12:01:34;100628.03;;;3.10;72.95
74327;BME280;62745;51.060;13.786;2023-02-26T12:04:01;100625.72;;;3.26;74.69
74327;BME280;62745;51.060;13.786;2023-02-26T12:06:26;100625.59;;;3.38;74.37
74327;BME280;62745;51.060;13.786;2023-02-26T12:08:52;100627.97;;;3.60;74.89
74327;BME280;62745;51.060;13.786;2023-02-26T12:17:14;100629.38;;;3.93;72.87
74327;BME280;62745;51.060;13.786;2023-02-26T12:19:57;100627.97;;;3.99;72.10
74327;BME280;62745;51.060;13.786;2023-02-26T12:22:52;100629.53;;;3.91;69.98
74327;BME280;62745;51.060;13.786;2023-02-26T12:28:21;100644.66;;;3.80;69.24
74327;BME280;62745;51.060;13.786;2023-02-26T12:31:21;100639.66;;;3.77;69.90
74327;BME280;62745;51.060;13.786;2023-02-26T12:34:20;100641.03;;;3.52;72.13
74327;BME280;62745;51.060;13.786;2023-02-26T12:46:04;100654.69;;;3.57;72.77
74327;BME280;62745;51.060;13.786;2023-02-26T12:51:36;100653.72;;;3.08;74.08
74327;BME280;62745;51.060;13.786;2023-02-26T12:57:04;100664.66;;;2.94;74.58
74327;BME280;62745;51.060;13.786;2023-02-26T13:05:16;100670.69;;;2.85;74.68
74327;BME280;62745;51.060;13.786;2023-02-26T13:07:50;100668.69;;;2.98;74.66
74327;BME280;62745;51.060;13.786;2023-02-26T13:15:51;100666.59;;;3.01;75.14
74327;BME280;62745;51.060;13.786;2023-02-26T13:21:06;100668.88;;;3.16;74.30
74327;BME280;62745;51.060;13.786;2023-02-26T13:23:51;100673.69;;;3.01;72.82
74327;BME280;62745;51.060;13.786;2023-02-26T13:26:20;100683.03;;;3.05;71.80
74327;BME280;62745;51.060;13.786;2023-02-26T13:29:00;100680.47;;;3.24;73.38
74327;BME280;62745;51.060;13.786;2023-02-26T13:31:33;100695.88;;;3.29;73.50
74327;BME280;62745;51.060;13.786;2023-02-26T13:34:25;100697.25;;;3.23;72.98
74327;BME280;62745;51.060;13.786;2023-02-26T13:36:53;100699.06;;;3.73;70.77
74327;BME280;62745;51.060;13.786;2023-02-26T13:42:20;100688.75;;;4.28;70.72
74327;BME280;62745;51.060;13.786;2023-02-26T13:45:20;100692.63;;;4.99;67.77
74327;BME280;62745;51.060;13.786;2023-02-26T13:50:47;100701.44;;;7.72;58.06
74327;BME280;62745;51.060;13.786;2023-02-26T14:04:58;100716.81;;;2.60;76.29
74327;BME280;62745;51.060;13.786;2023-02-26T14:07:47;100716.47;;;2.11;77.19
74327;BME280;62745;51.060;13.786;2023-02-26T14:10:32;100705.94;;;2.32;78.87
74327;BME280;62745;51.060;13.786;2023-02-26T14:14:04;100696.09;;;2.76;78.71
74327;BME280;62745;51.060;13.786;2023-02-26T14:15:59;100702.00;;;2.99;77.13
74327;BME280;62745;51.060;13.786;2023-02-26T14:23:51;100702.28;;;3.26;75.22
74327;BME280;62745;51.060;13.786;2023-02-26T14:26:20;100705.53;;;3.49;75.29
74327;BME280;62745;51.060;13.786;2023-02-26T14:29:19;100710.75;;;4.18;74.36
74327;BME280;62745;51.060;13.786;2023-02-26T14:31:53;100713.09;;;4.02;74.20
74327;BME280;62745;51.060;13.786;2023-02-26T14:34:24;100709.06;;;3.79;73.60
74327;BME280;62745;51.060;13.786;2023-02-26T14:36:53;100707.94;;;3.81;72.61
74327;BME280;62745;51.060;13.786;2023-02-26T14:39:37;100718.38;;;3.73;72.41